createdAt,value
2023-05-14T00:04:01.615Z,17.98
2023-05-14T00:09:04.692Z,18.01
2023-05-14T00:14:08.838Z,17.88
2023-05-14T00:19:11.943Z,17.89
2023-05-14T00:24:14.842Z,17.87
2023-05-14T00:29:18.995Z,17.60
2023-05-14T00:34:21.754Z,17.73
2023-05-14T00:39:24.471Z,17.52
2023-05-14T00:44:28.601Z,17.37
2023-05-14T00:49:31.541Z,17.50
2023-05-14T00:54:34.459Z,17.36
2023-05-14T00:59:40.881Z,17.14
2023-05-14T01:04:44.536Z,17.11
2023-05-14T01:09:55.275Z,17.15
2023-05-14T01:15:07.334Z,16.96
2023-05-14T01:20:10.619Z,17.13
2023-05-14T01:25:15.023Z,17.27
2023-05-14T01:30:23.697Z,17.04
2023-05-14T01:35:29.409Z,17.18
2023-05-14T01:40:34.494Z,17.32
2023-05-14T01:45:38.260Z,17.35
2023-05-14T01:50:41.111Z,17.35
2023-05-14T01:55:45.292Z,17.16
2023-05-14T02:00:48.094Z,17.00
2023-05-14T02:05:50.956Z,17.08
2023-05-14T02:10:55.142Z,16.94
2023-05-14T02:16:00.626Z,16.83
2023-05-14T02:21:03.476Z,16.56
2023-05-14T02:26:08.506Z,16.60
2023-05-14T02:31:11.267Z,16.62
2023-05-14T02:36:14.262Z,16.73
2023-05-14T02:41:18.441Z,16.69
2023-05-14T02:46:21.258Z,16.65
2023-05-14T02:51:24.231Z,16.69
2023-05-14T02:56:28.362Z,16.53
2023-05-14T03:01:31.247Z,16.27
2023-05-14T03:06:34.781Z,16.32
2023-05-14T03:11:39.040Z,16.11
2023-05-14T03:16:42.282Z,16.23
2023-05-14T03:21:46.381Z,16.09
2023-05-14T03:26:50.565Z,16.17
2023-05-14T03:31:54.365Z,15.98
2023-05-14T03:36:57.151Z,15.94
2023-05-14T03:42:01.311Z,15.82
2023-05-14T03:47:04.265Z,15.85
2023-05-14T03:52:07.273Z,15.97
2023-05-14T03:57:11.445Z,16.02
2023-05-14T04:02:14.224Z,16.14
2023-05-14T04:07:16.963Z,16.22
2023-05-14T04:12:21.041Z,16.32
2023-05-14T04:17:23.978Z,16.40
2023-05-14T04:22:26.802Z,16.45
2023-05-14T04:27:31.000Z,16.38
2023-05-14T04:32:33.792Z,16.49
2023-05-14T04:37:36.517Z,16.27
2023-05-14T04:42:40.633Z,16.44
2023-05-14T04:47:45.056Z,16.71
2023-05-14T04:52:47.879Z,16.60
2023-05-14T04:57:52.026Z,16.81
2023-05-14T05:02:54.817Z,16.71
2023-05-14T05:07:57.818Z,17.02
2023-05-14T05:13:01.962Z,17.11
2023-05-14T05:18:05.061Z,17.12
2023-05-14T05:23:07.833Z,17.17
2023-05-14T05:28:11.978Z,17.04
2023-05-14T05:33:15.103Z,17.17
2023-05-14T05:38:18.285Z,17.59
2023-05-14T05:43:22.537Z,17.69
2023-05-14T05:48:25.505Z,18.04
2023-05-14T05:53:28.234Z,18.29
2023-05-14T05:58:32.328Z,18.66
2023-05-14T06:03:35.430Z,18.88
2023-05-14T06:08:38.368Z,19.62
2023-05-14T06:13:42.607Z,19.35
2023-05-14T06:18:45.712Z,19.37
2023-05-14T06:23:48.631Z,19.61
2023-05-14T06:28:52.915Z,20.19
2023-05-14T06:33:55.722Z,22.53
2023-05-14T06:38:58.518Z,24.95
2023-05-14T06:44:02.706Z,25.86
2023-05-14T06:49:05.675Z,27.21
2023-05-14T06:54:08.869Z,26.66
2023-05-14T06:59:15.073Z,25.24
2023-05-14T07:04:17.982Z,26.01
2023-05-14T07:09:21.114Z,28.98
2023-05-14T07:14:25.332Z,31.72
2023-05-14T07:19:28.780Z,33.52
2023-05-14T07:24:31.635Z,34.18
2023-05-14T07:29:35.948Z,32.16
2023-05-14T07:34:38.808Z,32.30
2023-05-14T07:39:41.915Z,34.30
2023-05-14T07:44:46.037Z,35.19
2023-05-14T07:49:48.861Z,35.71
2023-05-14T07:54:52.801Z,34.22
2023-05-14T07:59:58.267Z,33.23
2023-05-14T08:05:01.571Z,34.82
2023-05-14T08:10:05.011Z,33.39
2023-05-14T08:15:10.582Z,33.25
2023-05-14T08:20:13.675Z,31.20
2023-05-14T08:25:16.817Z,28.81
2023-05-14T08:30:21.363Z,27.28
2023-05-14T08:35:24.521Z,26.09
2023-05-14T08:40:27.934Z,25.37
2023-05-14T08:45:34.849Z,25.71
2023-05-14T08:50:37.966Z,24.97
2023-05-14T08:55:40.981Z,25.04
2023-05-14T09:00:45.177Z,24.54
2023-05-14T09:05:50.090Z,24.85
2023-05-14T09:10:52.872Z,25.49
2023-05-14T09:15:57.668Z,24.21
2023-05-14T09:21:00.453Z,24.71
2023-05-14T09:26:06.527Z,25.10
2023-05-14T09:31:11.707Z,25.46
2023-05-14T09:36:14.533Z,25.55
2023-05-14T09:41:17.760Z,25.86
2023-05-14T09:46:21.887Z,25.30
2023-05-14T09:51:25.824Z,25.66
2023-05-14T09:56:37.844Z,25.91
2023-05-14T10:01:44.057Z,24.53
2023-05-14T10:06:52.289Z,25.34
2023-05-14T10:12:00.124Z,25.13
2023-05-14T10:17:06.877Z,25.27
2023-05-14T10:22:13.723Z,25.60
2023-05-14T10:27:17.384Z,25.60
2023-05-14T10:32:22.911Z,24.95
2023-05-14T10:37:27.184Z,25.78
2023-05-14T10:42:35.758Z,26.01
2023-05-14T10:47:43.202Z,25.71
2023-05-14T10:52:46.918Z,25.86
2023-05-14T10:57:50.520Z,26.22
2023-05-14T11:02:57.516Z,26.64
2023-05-14T11:08:00.860Z,26.66
2023-05-14T11:13:03.871Z,26.69
2023-05-14T11:18:08.145Z,26.11
2023-05-14T11:23:11.193Z,25.79
2023-05-14T11:28:14.183Z,26.46
2023-05-14T11:33:19.200Z,26.29
2023-05-14T11:38:22.562Z,26.27
2023-05-14T11:43:29.049Z,26.77
2023-05-14T11:48:34.878Z,25.89
2023-05-14T11:53:37.800Z,27.02
2023-05-14T11:58:40.973Z,26.07
2023-05-14T12:03:45.286Z,25.35
2023-05-14T12:08:49.320Z,25.48
2023-05-14T12:13:53.799Z,24.89
2023-05-14T12:19:01.006Z,25.47
2023-05-14T12:24:04.020Z,26.15
2023-05-14T12:29:07.896Z,25.98
2023-05-14T12:34:12.071Z,25.52
2023-05-14T12:39:16.836Z,25.33
2023-05-14T12:44:21.945Z,25.51
2023-05-14T12:49:26.146Z,25.25
2023-05-14T12:54:29.030Z,25.10
2023-05-14T12:59:31.840Z,25.14
2023-05-14T13:04:36.031Z,24.73
2023-05-14T13:09:38.963Z,24.82
2023-05-14T13:14:41.677Z,25.06
2023-05-14T13:19:45.869Z,25.55
2023-05-14T13:24:48.693Z,25.78
2023-05-14T13:29:51.409Z,24.98
2023-05-14T13:34:55.680Z,24.76
2023-05-14T13:39:58.477Z,25.54
2023-05-14T13:45:01.501Z,25.65
2023-05-14T13:50:06.672Z,25.17
2023-05-14T13:55:09.924Z,24.80
2023-05-14T14:00:13.698Z,25.21
2023-05-14T14:05:17.954Z,25.02
2023-05-14T14:10:20.805Z,25.59
2023-05-14T14:15:23.743Z,25.23
2023-05-14T14:20:28.095Z,25.10
2023-05-14T14:25:30.849Z,25.31
2023-05-14T14:30:34.634Z,26.53
2023-05-14T14:35:38.882Z,27.02
2023-05-14T14:40:41.725Z,25.57
2023-05-14T14:45:46.863Z,25.54
2023-05-14T14:50:52.702Z,25.11
2023-05-14T14:55:55.624Z,26.07
2023-05-14T15:00:59.323Z,25.85
2023-05-14T15:06:03.515Z,25.33
2023-05-14T15:11:07.308Z,25.11
2023-05-14T15:16:10.255Z,25.06
2023-05-14T15:21:14.535Z,24.95
2023-05-14T15:26:17.352Z,24.51
2023-05-14T15:31:20.201Z,24.66
2023-05-14T15:36:24.416Z,25.03
2023-05-14T15:41:28.734Z,24.46
2023-05-14T15:46:32.208Z,24.97
2023-05-14T15:51:36.688Z,24.89
2023-05-14T15:56:40.489Z,24.89
2023-05-14T16:01:43.372Z,24.85
2023-05-14T16:06:47.593Z,24.89
2023-05-14T16:11:50.443Z,24.56
2023-05-14T16:16:54.520Z,24.06
2023-05-14T16:21:58.696Z,24.41
2023-05-14T16:27:01.523Z,24.69
2023-05-14T16:32:04.591Z,24.30
2023-05-14T16:37:10.213Z,24.12
2023-05-14T16:42:14.348Z,23.83
2023-05-14T16:47:17.371Z,23.67
2023-05-14T16:52:21.694Z,23.73
2023-05-14T16:57:25.521Z,23.62
2023-05-14T17:02:28.301Z,23.87
2023-05-14T17:07:32.480Z,23.80
2023-05-14T17:12:35.307Z,23.79
2023-05-14T17:17:38.216Z,24.01
2023-05-14T17:22:42.782Z,24.11
2023-05-14T17:27:45.724Z,23.85
2023-05-14T17:32:51.437Z,23.87
2023-05-14T17:37:59.893Z,23.46
2023-05-14T17:43:03.309Z,23.60
2023-05-14T17:48:07.029Z,23.15
2023-05-14T17:53:11.214Z,22.89
2023-05-14T17:58:16.268Z,23.31
2023-05-14T18:03:20.861Z,23.12
2023-05-14T18:08:27.993Z,23.15
2023-05-14T18:13:31.058Z,23.23
2023-05-14T18:18:39.945Z,23.07
2023-05-14T18:23:45.380Z,22.83
2023-05-14T18:28:48.686Z,22.81
2023-05-14T18:33:54.519Z,22.73
2023-05-14T18:38:58.786Z,22.49
2023-05-14T18:44:03.081Z,22.73
2023-05-14T18:49:06.162Z,22.34
2023-05-14T18:54:10.583Z,22.26
2023-05-14T18:59:13.398Z,22.13
2023-05-14T19:04:51.834Z,21.74
2023-05-14T19:10:04.829Z,21.91
2023-05-14T19:15:08.754Z,21.51
2023-05-14T19:20:14.904Z,21.87
2023-05-14T19:25:19.365Z,21.81
2023-05-14T19:30:22.849Z,21.45
2023-05-14T19:35:26.022Z,21.54
2023-05-14T19:40:30.419Z,21.29
2023-05-14T19:45:36.568Z,21.42
2023-05-14T19:50:39.367Z,21.36
2023-05-14T19:55:43.922Z,21.24
2023-05-14T20:00:47.386Z,21.19
2023-05-14T20:05:53.511Z,21.04
2023-05-14T20:10:57.706Z,20.88
2023-05-14T20:16:01.100Z,20.96
2023-05-14T20:21:05.503Z,20.56
2023-05-14T20:26:10.108Z,20.87
2023-05-14T20:31:12.962Z,20.97
2023-05-14T20:36:17.483Z,20.67
2023-05-14T20:41:22.243Z,20.78
2023-05-14T20:46:26.738Z,20.55
2023-05-14T20:51:29.678Z,20.98
2023-05-14T20:56:34.187Z,20.94
2023-05-14T21:01:37.389Z,20.93
2023-05-14T21:06:40.195Z,21.07
2023-05-14T21:11:44.473Z,20.85
2023-05-14T21:16:47.698Z,20.77
2023-05-14T21:21:50.640Z,20.64
2023-05-14T21:26:58.207Z,20.42
2023-05-14T21:32:01.065Z,20.67
2023-05-14T21:37:06.154Z,20.66
2023-05-14T21:42:12.225Z,20.21
2023-05-14T21:47:16.211Z,20.09
2023-05-14T21:52:18.978Z,20.00
2023-05-14T21:57:23.350Z,19.77
2023-05-14T22:02:26.249Z,19.77
2023-05-14T22:07:29.182Z,19.39
2023-05-14T22:12:33.319Z,19.46
2023-05-14T22:17:36.693Z,19.49
2023-05-14T22:22:40.070Z,19.54
2023-05-14T22:27:44.216Z,19.37
2023-05-14T22:32:47.455Z,19.27
2023-05-14T22:37:50.261Z,19.07
2023-05-14T22:42:54.531Z,18.98
2023-05-14T22:47:57.410Z,19.02
2023-05-14T22:53:00.349Z,18.80
2023-05-14T22:58:04.526Z,18.94
2023-05-14T23:03:07.318Z,18.68
2023-05-14T23:08:10.128Z,18.58
2023-05-14T23:13:14.275Z,18.52
2023-05-14T23:18:17.318Z,18.30
2023-05-14T23:23:20.128Z,18.14
2023-05-14T23:28:24.839Z,18.21
2023-05-14T23:33:27.664Z,17.96
2023-05-14T23:38:30.495Z,18.17
2023-05-14T23:43:34.630Z,18.01
2023-05-14T23:48:37.442Z,18.04
2023-05-14T23:53:40.284Z,18.05
2023-05-14T23:58:44.635Z,18.08
